This is the latest recevied weather packets stored in our database for station/object IZ1DME-3. If no packets are shown the sender has not sent any weather packets the latest 10 day(s).
| Time | Temp. | Humidity | Pressure | Rain* | Wind** | Luminosity | Snow |
|---|---|---|---|---|---|---|---|
| 1777356274 | 15° C | 65% | 1017.6 hPa | - | - | - | - |
| 1777354774 | 15° C | 64% | 1017.1 hPa | - | - | - | - |
| 1777353274 | 15° C | 60% | 1016.7 hPa | - | - | - | - |
| 1777351774 | 15° C | 60% | 1016.6 hPa | - | - | - | - |
| 1777350274 | 15° C | 59% | 1016.3 hPa | - | - | - | - |
| 1777348774 | 15° C | 61% | 1016.7 hPa | - | - | - | - |
| 1777347276 | 14.44° C | 63% | 1016.7 hPa | - | - | - | - |
| 1777345774 | 15° C | 60% | 1016.7 hPa | - | - | - | - |
| 1777344274 | 15.56° C | 58% | 1016.6 hPa | - | - | - | - |
| 1777342774 | 15.56° C | 60% | 1016.7 hPa | - | - | - | - |
| 1777341274 | 15° C | 61% | 1016.9 hPa | - | - | - | - |
| 1777339774 | 15.56° C | 60% | 1016.8 hPa | - | - | - | - |
| 1777338274 | 15° C | 61% | 1017 hPa | - | - | - | - |
| 1777336775 | 15.56° C | 60% | 1017.1 hPa | - | - | - | - |
| 1777335275 | 16.11° C | 58% | 1017.2 hPa | - | - | - | - |
| 1777333775 | 16.11° C | 58% | 1017.4 hPa | - | - | - | - |
| 1777332275 | 16.67° C | 58% | 1017.3 hPa | - | - | - | - |
| 1777330774 | 16.11° C | 60% | 1017.3 hPa | - | - | - | - |
| 1777329274 | 16.67° C | 58% | 1017.2 hPa | - | - | - | - |
| 1777327774 | 16.67° C | 59% | 1017.2 hPa | - | - | - | - |
| 1777326275 | 17.22° C | 58% | 1017.2 hPa | - | - | - | - |
| 1777324775 | 17.22° C | 58% | 1017.2 hPa | - | - | - | - |
| 1777323274 | 17.78° C | 60% | 1017.2 hPa | - | - | - | - |
| 1777321774 | 17.78° C | 59% | 1017.1 hPa | - | - | - | - |
| 1777320274 | 18.89° C | 52% | 1016.9 hPa | - | - | - | - |
* Rain since midnight (hover to see other rain measurements)
** Current wind speed in m/s (hover to see current wind gust speed)